createdAt,value
2022-11-10T00:01:06.645Z,2.33
2022-11-10T00:03:34.483Z,2.90
2022-11-10T00:06:09.591Z,2.55
2022-11-10T00:08:36.861Z,2.47
2022-11-10T00:11:08.003Z,2.70
2022-11-10T00:13:57.269Z,2.55
2022-11-10T00:16:42.720Z,2.88
2022-11-10T00:19:09.498Z,2.67
2022-11-10T00:21:37.224Z,2.75
2022-11-10T00:24:04.483Z,2.53
2022-11-10T00:26:31.786Z,2.35
2022-11-10T00:28:58.401Z,2.85
2022-11-10T00:31:25.037Z,2.60
2022-11-10T00:33:51.537Z,2.60
2022-11-10T00:36:18.111Z,3.17
2022-11-10T00:38:44.770Z,3.30
2022-11-10T00:41:11.409Z,3.13
2022-11-10T00:43:39.062Z,2.67
2022-11-10T00:46:05.904Z,2.92
2022-11-10T00:48:32.475Z,2.92
2022-11-10T00:50:59.594Z,3.25
2022-11-10T00:53:26.154Z,3.10
2022-11-10T00:55:52.790Z,2.22
2022-11-10T00:58:19.400Z,2.40
2022-11-10T01:00:46.144Z,3.03
2022-11-10T01:03:17.109Z,2.80
2022-11-10T01:05:44.492Z,2.80
2022-11-10T01:08:11.486Z,2.65
2022-11-10T01:10:38.131Z,3.42
2022-11-10T01:13:04.791Z,3.25
2022-11-10T01:15:31.359Z,2.90
2022-11-10T01:17:58.083Z,3.45
2022-11-10T01:20:25.343Z,2.75
2022-11-10T01:22:52.027Z,2.30
2022-11-10T01:25:18.590Z,3.00
2022-11-10T01:27:45.345Z,3.15
2022-11-10T01:30:12.523Z,2.10
2022-11-10T01:32:39.106Z,2.65
2022-11-10T01:35:06.469Z,2.83
2022-11-10T01:37:33.072Z,2.72
2022-11-10T01:40:00.332Z,2.30
2022-11-10T01:42:49.956Z,2.40
2022-11-10T01:45:22.548Z,2.50
2022-11-10T01:47:55.404Z,2.92
2022-11-10T01:50:26.140Z,2.55
2022-11-10T01:52:56.201Z,3.67
2022-11-10T01:55:24.618Z,2.95
2022-11-10T01:57:51.475Z,3.05
2022-11-10T02:00:19.337Z,3.65
2022-11-10T02:02:54.901Z,3.33
2022-11-10T02:05:23.461Z,3.08
2022-11-10T02:07:51.819Z,2.63
2022-11-10T02:10:20.850Z,3.45
2022-11-10T02:12:49.583Z,3.63
2022-11-10T02:15:18.814Z,3.05
2022-11-10T02:17:49.099Z,3.25
2022-11-10T02:20:20.243Z,3.20
2022-11-10T02:22:46.992Z,2.83
2022-11-10T02:25:21.265Z,3.30
2022-11-10T02:27:47.888Z,3.05
2022-11-10T02:30:15.686Z,3.00
2022-11-10T02:32:42.303Z,2.55
2022-11-10T02:35:09.147Z,2.95
2022-11-10T02:37:35.786Z,2.47
2022-11-10T02:40:02.296Z,2.67
2022-11-10T02:42:30.083Z,3.13
2022-11-10T02:44:57.721Z,2.80
2022-11-10T02:47:24.269Z,2.95
2022-11-10T02:49:50.954Z,3.80
2022-11-10T02:52:17.540Z,3.22
2022-11-10T02:54:44.104Z,3.15
2022-11-10T02:57:10.713Z,3.13
2022-11-10T02:59:37.243Z,3.13
2022-11-10T03:02:03.912Z,2.80
2022-11-10T03:04:30.440Z,2.50
2022-11-10T03:06:57.014Z,2.60
2022-11-10T03:09:23.569Z,3.42
2022-11-10T03:11:50.237Z,3.45
2022-11-10T03:14:16.785Z,3.10
2022-11-10T03:16:44.446Z,3.33
2022-11-10T03:19:11.013Z,3.55
2022-11-10T03:21:37.762Z,2.40
2022-11-10T03:24:04.682Z,3.95
2022-11-10T03:26:31.511Z,3.08
2022-11-10T03:28:58.136Z,3.00
2022-11-10T03:31:24.718Z,3.30
2022-11-10T03:33:51.447Z,5.15
2022-11-10T03:36:18.158Z,2.92
2022-11-10T03:38:44.699Z,3.70
2022-11-10T03:41:20.203Z,3.35
2022-11-10T03:43:48.578Z,3.20
2022-11-10T03:46:15.590Z,3.35
2022-11-10T03:48:42.337Z,2.85
2022-11-10T03:51:08.954Z,2.97
2022-11-10T03:53:35.689Z,4.05
2022-11-10T03:56:05.016Z,2.67
2022-11-10T03:58:32.853Z,2.95
2022-11-10T04:00:59.474Z,3.40
2022-11-10T04:03:26.435Z,3.53
2022-11-10T04:06:11.891Z,3.13
2022-11-10T04:08:57.057Z,3.70
2022-11-10T04:11:42.716Z,3.58
2022-11-10T04:14:29.378Z,3.20
2022-11-10T04:16:56.027Z,3.05
2022-11-10T04:19:24.834Z,2.75
2022-11-10T04:21:51.760Z,3.50
2022-11-10T04:24:18.496Z,4.10
2022-11-10T04:26:45.441Z,3.30
2022-11-10T04:29:12.447Z,3.78
2022-11-10T04:31:41.208Z,3.05
2022-11-10T04:34:13.589Z,3.60
2022-11-10T04:36:42.759Z,3.75
2022-11-10T04:39:10.102Z,4.18
2022-11-10T04:41:37.591Z,3.40
2022-11-10T04:44:04.702Z,2.50
2022-11-10T04:46:37.897Z,3.80
2022-11-10T04:49:05.768Z,3.97
2022-11-10T04:51:34.822Z,3.40
2022-11-10T04:54:02.320Z,3.20
2022-11-10T04:56:29.653Z,3.30
2022-11-10T04:58:56.836Z,3.20
2022-11-10T05:01:27.004Z,3.58
2022-11-10T05:03:54.649Z,2.80
2022-11-10T05:06:21.250Z,2.92
2022-11-10T05:08:47.963Z,3.20
2022-11-10T05:11:14.715Z,3.30
2022-11-10T05:13:43.041Z,3.17
2022-11-10T05:16:09.959Z,3.30
2022-11-10T05:18:37.367Z,3.50
2022-11-10T05:21:04.272Z,3.10
2022-11-10T05:23:40.497Z,3.03
2022-11-10T05:26:15.235Z,2.92
2022-11-10T05:28:43.641Z,3.70
2022-11-10T05:31:11.211Z,2.97
2022-11-10T05:33:38.145Z,3.70
2022-11-10T05:36:06.499Z,3.50
2022-11-10T05:38:33.149Z,3.25
2022-11-10T05:40:59.784Z,3.38
2022-11-10T05:43:26.701Z,4.03
2022-11-10T05:45:53.463Z,3.42
2022-11-10T05:48:20.314Z,3.67
2022-11-10T05:50:46.852Z,2.90
2022-11-10T05:53:13.496Z,3.17
2022-11-10T05:55:40.059Z,3.83
2022-11-10T05:58:07.484Z,3.20
2022-11-10T06:00:34.529Z,3.95
2022-11-10T06:03:04.091Z,3.97
2022-11-10T06:05:33.812Z,3.53
2022-11-10T06:08:01.438Z,3.20
2022-11-10T06:10:28.244Z,3.30
2022-11-10T06:12:55.059Z,2.88
2022-11-10T06:15:22.801Z,2.85
2022-11-10T06:17:50.138Z,3.15
2022-11-10T06:20:17.677Z,2.88
2022-11-10T06:22:46.714Z,3.47
2022-11-10T06:25:13.239Z,3.33
2022-11-10T06:27:43.834Z,3.25
2022-11-10T06:30:11.440Z,3.80
2022-11-10T06:32:41.971Z,3.25
2022-11-10T06:35:08.720Z,3.45
2022-11-10T06:37:35.293Z,2.95
2022-11-10T06:40:01.931Z,3.25
2022-11-10T06:42:28.442Z,3.60
2022-11-10T06:44:55.054Z,3.13
2022-11-10T06:47:21.761Z,3.08
2022-11-10T06:49:48.448Z,3.20
2022-11-10T06:52:14.978Z,3.83
2022-11-10T06:54:41.721Z,3.58
2022-11-10T06:57:08.303Z,3.45
2022-11-10T06:59:34.892Z,3.50
2022-11-10T07:02:01.483Z,3.78
2022-11-10T07:04:28.857Z,3.90
2022-11-10T07:06:55.610Z,3.67
2022-11-10T07:09:22.304Z,3.38
2022-11-10T07:11:48.866Z,3.10
2022-11-10T07:14:15.530Z,3.97
2022-11-10T07:16:42.104Z,3.85
2022-11-10T07:19:09.731Z,3.30
2022-11-10T07:21:36.333Z,2.80
2022-11-10T07:24:03.128Z,3.35
2022-11-10T07:26:29.698Z,3.58
2022-11-10T07:28:56.239Z,3.72
2022-11-10T07:31:22.832Z,3.88
2022-11-10T07:33:54.212Z,3.22
2022-11-10T07:36:21.606Z,3.95
2022-11-10T07:38:48.450Z,3.92
2022-11-10T07:41:14.963Z,4.20
2022-11-10T07:43:41.589Z,3.30
2022-11-10T07:46:09.381Z,4.40
2022-11-10T07:48:35.958Z,3.22
2022-11-10T07:51:02.612Z,3.72
2022-11-10T07:53:29.186Z,3.40
2022-11-10T07:55:58.321Z,3.90
2022-11-10T07:58:25.427Z,3.15
2022-11-10T08:00:52.658Z,3.67
2022-11-10T08:03:21.505Z,3.40
2022-11-10T08:05:48.873Z,3.88
2022-11-10T08:08:15.460Z,3.83
2022-11-10T08:10:42.341Z,3.97
2022-11-10T08:13:11.552Z,3.70
2022-11-10T08:15:39.069Z,3.67
2022-11-10T08:18:35.067Z,3.58
2022-11-10T08:21:03.112Z,3.85
2022-11-10T08:23:29.831Z,3.33
2022-11-10T08:26:01.371Z,3.10
2022-11-10T08:28:28.562Z,3.80
2022-11-10T08:30:55.393Z,2.65
2022-11-10T08:33:22.925Z,3.17
2022-11-10T08:35:51.717Z,3.08
2022-11-10T08:38:21.622Z,2.97
2022-11-10T08:40:48.725Z,3.10
2022-11-10T08:43:16.343Z,3.53
2022-11-10T08:45:44.614Z,3.00
2022-11-10T08:48:17.376Z,3.25
2022-11-10T08:50:44.144Z,3.83
2022-11-10T08:53:16.210Z,3.38
2022-11-10T08:55:44.379Z,3.92
2022-11-10T08:58:13.783Z,3.03
2022-11-10T09:00:40.480Z,2.67
2022-11-10T09:03:12.176Z,2.95
2022-11-10T09:05:38.821Z,2.85
2022-11-10T09:08:05.965Z,2.50
2022-11-10T09:10:36.795Z,3.10
2022-11-10T09:13:06.055Z,3.00
2022-11-10T09:15:34.696Z,3.20
2022-11-10T09:18:03.179Z,3.63
2022-11-10T09:20:31.861Z,2.78
2022-11-10T09:23:09.566Z,3.42
2022-11-10T09:25:37.134Z,3.00
2022-11-10T09:28:04.765Z,3.13
2022-11-10T09:30:32.441Z,2.88
2022-11-10T09:33:00.710Z,3.08
2022-11-10T09:35:27.691Z,2.83
2022-11-10T09:37:54.494Z,3.33
2022-11-10T09:40:32.532Z,3.03
2022-11-10T09:43:02.415Z,2.78
2022-11-10T09:45:44.983Z,3.50
2022-11-10T09:48:16.538Z,3.80
2022-11-10T09:51:01.467Z,2.95
2022-11-10T09:53:38.158Z,3.75
2022-11-10T09:58:38.873Z,3.67
2022-11-10T10:01:43.072Z,3.33
2022-11-10T10:04:33.274Z,3.05
2022-11-10T10:07:21.163Z,4.07
2022-11-10T10:10:17.376Z,4.35
2022-11-10T10:13:18.024Z,3.60
2022-11-10T10:16:08.083Z,3.42
2022-11-10T10:18:52.688Z,3.65
2022-11-10T10:21:37.967Z,4.15
2022-11-10T10:24:12.711Z,4.03
2022-11-10T10:26:46.662Z,4.40
2022-11-10T10:29:19.540Z,3.30
2022-11-10T10:31:50.206Z,3.45
2022-11-10T10:34:20.178Z,3.38
2022-11-10T10:36:47.594Z,3.40
2022-11-10T10:39:21.305Z,3.08
2022-11-10T10:41:47.975Z,3.28
2022-11-10T10:44:17.651Z,3.38
2022-11-10T10:46:58.988Z,3.45
2022-11-10T10:49:29.572Z,3.42
2022-11-10T10:52:17.615Z,3.80
2022-11-10T10:54:44.183Z,3.67
2022-11-10T10:57:24.061Z,3.50
2022-11-10T10:59:51.693Z,3.83
2022-11-10T11:02:30.975Z,3.22
2022-11-10T11:05:22.711Z,2.92
2022-11-10T11:07:55.554Z,3.30
2022-11-10T11:10:23.535Z,3.55
2022-11-10T11:12:50.156Z,3.28
2022-11-10T11:15:22.323Z,2.95
2022-11-10T11:18:16.900Z,3.28
2022-11-10T11:21:02.831Z,3.38
2022-11-10T11:23:54.005Z,2.95
2022-11-10T11:26:44.293Z,3.47
2022-11-10T11:29:26.112Z,3.47
2022-11-10T11:31:59.131Z,4.45
2022-11-10T11:35:01.266Z,4.80
2022-11-10T11:38:00.137Z,3.85
2022-11-10T11:40:35.441Z,3.40
2022-11-10T11:43:10.247Z,3.00
2022-11-10T11:45:59.795Z,3.05
2022-11-10T11:49:01.659Z,2.78
2022-11-10T11:51:49.508Z,3.80
2022-11-10T11:54:31.321Z,3.25
2022-11-10T11:57:18.124Z,3.67
2022-11-10T12:00:10.567Z,2.75
2022-11-10T12:03:12.526Z,2.72
2022-11-10T12:06:22.260Z,2.60
2022-11-10T12:08:48.859Z,2.72
2022-11-10T12:11:37.718Z,2.83
2022-11-10T12:14:27.827Z,3.40
2022-11-10T12:17:07.690Z,3.63
2022-11-10T12:19:50.313Z,3.47
2022-11-10T12:22:42.453Z,3.65
2022-11-10T12:25:09.087Z,3.97
2022-11-10T12:27:44.595Z,3.10
2022-11-10T12:30:14.369Z,3.05
2022-11-10T12:32:46.631Z,3.55
2022-11-10T12:35:24.509Z,3.05
2022-11-10T12:37:58.657Z,3.20
2022-11-10T12:40:37.976Z,2.63
2022-11-10T12:43:18.167Z,2.45
2022-11-10T12:46:00.173Z,2.25
2022-11-10T12:48:37.113Z,3.45
2022-11-10T12:51:17.425Z,2.22
2022-11-10T12:53:45.846Z,2.42
2022-11-10T12:56:21.814Z,3.10
2022-11-10T12:58:48.558Z,2.38
2022-11-10T13:01:19.662Z,3.05
2022-11-10T13:03:57.264Z,2.95
2022-11-10T13:06:35.805Z,3.33
2022-11-10T13:09:03.065Z,2.05
2022-11-10T13:11:36.794Z,2.50
2022-11-10T13:14:18.790Z,2.65
2022-11-10T13:16:55.569Z,2.72
2022-11-10T13:19:25.136Z,2.30
2022-11-10T13:21:51.675Z,3.45
2022-11-10T13:24:20.590Z,2.63
2022-11-10T13:26:55.597Z,2.53
2022-11-10T13:29:53.736Z,2.72
2022-11-10T13:32:26.351Z,2.17
2022-11-10T13:34:54.236Z,2.42
2022-11-10T13:37:30.074Z,2.72
2022-11-10T13:40:24.417Z,2.38
2022-11-10T13:42:56.788Z,2.50
2022-11-10T13:45:43.912Z,2.30
2022-11-10T13:51:12.378Z,1.83
2022-11-10T13:53:57.545Z,2.15
2022-11-10T13:56:42.818Z,2.63
2022-11-10T13:59:25.035Z,2.83
2022-11-10T14:01:51.646Z,3.08
2022-11-10T14:04:50.963Z,1.77
2022-11-10T14:07:19.647Z,2.20
2022-11-10T14:09:50.326Z,2.30
2022-11-10T14:12:29.108Z,2.33
2022-11-10T14:15:21.573Z,2.72
2022-11-10T14:17:51.554Z,2.38
2022-11-10T14:20:46.553Z,1.90
2022-11-10T14:23:45.754Z,2.20
2022-11-10T14:26:23.986Z,1.98
2022-11-10T14:28:50.515Z,2.00
2022-11-10T14:31:22.367Z,2.15
2022-11-10T14:33:57.217Z,2.20
2022-11-10T14:36:24.660Z,1.92
2022-11-10T14:38:52.837Z,1.70
2022-11-10T14:41:21.881Z,2.58
2022-11-10T14:44:11.296Z,1.88
2022-11-10T14:46:38.515Z,2.10
2022-11-10T14:49:05.429Z,1.67
2022-11-10T14:51:34.836Z,1.60
2022-11-10T14:54:02.768Z,1.90
2022-11-10T14:56:35.026Z,1.70
2022-11-10T14:59:04.536Z,1.88
2022-11-10T15:01:35.294Z,3.50
2022-11-10T15:04:06.564Z,2.47
2022-11-10T15:06:34.857Z,1.55
2022-11-10T15:09:14.771Z,1.55
2022-11-10T15:11:50.596Z,1.85
2022-11-10T15:14:39.576Z,1.38
2022-11-10T15:17:09.000Z,1.95
2022-11-10T15:19:38.281Z,1.75
2022-11-10T15:22:07.166Z,1.77
2022-11-10T15:24:33.908Z,2.63
2022-11-10T15:27:00.682Z,3.70
2022-11-10T15:29:30.062Z,3.03
2022-11-10T15:31:56.601Z,2.58
2022-11-10T15:34:44.421Z,2.50
2022-11-10T15:37:31.042Z,2.25
2022-11-10T15:40:31.647Z,1.77
2022-11-10T15:43:13.822Z,1.80
2022-11-10T15:45:42.784Z,2.00
2022-11-10T15:48:14.063Z,1.83
2022-11-10T15:50:42.442Z,1.98
2022-11-10T15:53:14.710Z,1.60
2022-11-10T15:55:43.053Z,2.08
2022-11-10T15:58:18.827Z,2.67
2022-11-10T16:00:45.864Z,1.92
2022-11-10T16:03:14.211Z,2.08
2022-11-10T16:05:41.400Z,1.85
2022-11-10T16:08:13.319Z,1.80
2022-11-10T16:10:43.158Z,1.92
2022-11-10T16:13:12.548Z,1.90
2022-11-10T16:15:40.811Z,1.85
2022-11-10T16:18:15.292Z,1.80
2022-11-10T16:20:42.613Z,2.00
2022-11-10T16:23:09.721Z,1.85
2022-11-10T16:25:36.886Z,1.75
2022-11-10T16:28:05.441Z,1.92
2022-11-10T16:30:34.270Z,1.90
2022-11-10T16:33:00.911Z,2.10
2022-11-10T16:35:27.970Z,1.80
2022-11-10T16:37:54.803Z,1.95
2022-11-10T16:40:24.026Z,2.00
2022-11-10T16:42:50.774Z,1.50
2022-11-10T16:45:22.808Z,1.50
2022-11-10T16:47:52.822Z,1.67
2022-11-10T16:50:30.734Z,1.88
2022-11-10T16:53:06.682Z,1.30
2022-11-10T16:55:33.337Z,1.50
2022-11-10T16:58:00.061Z,1.90
2022-11-10T17:00:27.511Z,1.83
2022-11-10T17:03:03.571Z,1.60
2022-11-10T17:05:30.772Z,1.92
2022-11-10T17:08:01.683Z,1.55
2022-11-10T17:10:28.309Z,1.58
2022-11-10T17:12:55.149Z,1.60
2022-11-10T17:15:21.994Z,1.98
2022-11-10T17:17:53.643Z,3.22
2022-11-10T17:20:28.767Z,2.25
2022-11-10T17:22:55.714Z,2.10
2022-11-10T17:25:28.119Z,2.00
2022-11-10T17:27:54.773Z,1.48
2022-11-10T17:30:22.202Z,1.70
2022-11-10T17:33:05.666Z,1.70
2022-11-10T17:35:44.898Z,2.20
2022-11-10T17:38:23.396Z,2.10
2022-11-10T17:40:50.625Z,2.17
2022-11-10T17:43:17.410Z,1.90
2022-11-10T17:45:44.174Z,1.92
2022-11-10T17:49:24.294Z,1.80
2022-11-10T17:51:51.015Z,1.92
2022-11-10T17:54:17.949Z,1.90
2022-11-10T17:56:46.530Z,1.70
2022-11-10T17:59:13.116Z,1.70
2022-11-10T18:01:39.896Z,1.40
2022-11-10T18:04:13.856Z,1.88
2022-11-10T18:10:52.596Z,1.77
2022-11-10T18:13:19.213Z,2.38
2022-11-10T18:15:47.607Z,2.03
2022-11-10T18:18:16.854Z,1.80
2022-11-10T18:20:44.354Z,1.63
2022-11-10T18:23:12.701Z,2.05
2022-11-10T18:25:40.574Z,1.88
2022-11-10T18:28:08.177Z,2.10
2022-11-10T18:30:35.660Z,4.28
2022-11-10T18:33:03.080Z,1.85
2022-11-10T18:35:29.927Z,2.00
2022-11-10T18:37:57.472Z,1.70
2022-11-10T18:40:24.323Z,2.20
2022-11-10T18:42:50.996Z,2.30
2022-11-10T18:45:17.646Z,2.95
2022-11-10T18:47:44.275Z,2.70
2022-11-10T18:50:11.411Z,3.58
2022-11-10T18:52:38.037Z,2.72
2022-11-10T18:55:04.893Z,2.75
2022-11-10T18:57:31.500Z,2.17
2022-11-10T18:59:58.157Z,2.45
2022-11-10T19:02:24.796Z,2.80
2022-11-10T19:04:53.668Z,3.30
2022-11-10T19:07:20.692Z,2.92
2022-11-10T19:09:47.489Z,3.30
2022-11-10T19:12:14.175Z,3.67
2022-11-10T19:14:41.239Z,2.58
2022-11-10T19:17:07.930Z,2.33
2022-11-10T19:19:34.497Z,2.30
2022-11-10T19:22:01.153Z,2.25
2022-11-10T19:24:30.180Z,2.67
2022-11-10T19:26:57.133Z,2.33
2022-11-10T19:29:23.802Z,2.38
2022-11-10T19:31:50.463Z,2.13
2022-11-10T19:34:18.989Z,2.17
2022-11-10T19:36:49.349Z,2.33
2022-11-10T19:39:16.183Z,2.80
2022-11-10T19:41:42.931Z,2.40
2022-11-10T19:48:00.876Z,2.90
2022-11-10T19:50:27.415Z,2.50
2022-11-10T19:52:53.958Z,2.28
2022-11-10T19:55:20.616Z,2.45
2022-11-10T19:57:47.256Z,2.40
2022-11-10T20:04:01.008Z,1.90
2022-11-10T20:07:23.984Z,2.28
2022-11-10T20:09:50.509Z,2.85
2022-11-10T20:15:52.565Z,2.90
2022-11-10T20:18:19.112Z,2.90
2022-11-10T20:21:49.332Z,2.60
2022-11-10T20:24:16.520Z,2.60
2022-11-10T20:26:43.124Z,2.40
2022-11-10T20:29:09.699Z,2.42
2022-11-10T20:31:37.023Z,2.63
2022-11-10T20:34:03.639Z,2.38
2022-11-10T20:36:31.717Z,2.13
2022-11-10T20:39:00.483Z,2.40
2022-11-10T20:41:28.981Z,2.63
2022-11-10T20:43:56.069Z,2.53
2022-11-10T20:46:48.435Z,2.50
2022-11-10T20:49:09.819Z,2.45
2022-11-10T20:51:36.495Z,2.42
2022-11-10T20:54:03.063Z,2.75
2022-11-10T20:56:30.425Z,2.55
2022-11-10T20:58:57.598Z,2.60
2022-11-10T21:01:24.308Z,2.45
2022-11-10T21:03:51.145Z,3.30
2022-11-10T21:06:17.877Z,2.85
2022-11-10T21:08:44.590Z,2.58
2022-11-10T21:11:32.515Z,2.97
2022-11-10T21:14:01.479Z,3.05
2022-11-10T21:16:28.682Z,2.75
2022-11-10T21:18:56.436Z,2.92
2022-11-10T21:21:34.450Z,2.97
2022-11-10T21:24:05.740Z,2.55
2022-11-10T21:26:34.270Z,3.00
2022-11-10T21:29:01.792Z,2.83
2022-11-10T21:31:30.053Z,4.18
2022-11-10T21:34:00.456Z,3.13
2022-11-10T21:36:29.726Z,3.08
2022-11-10T21:38:57.904Z,2.80
2022-11-10T21:41:25.055Z,2.85
2022-11-10T21:43:52.748Z,2.58
2022-11-10T21:46:19.400Z,2.67
2022-11-10T21:48:45.998Z,2.53
2022-11-10T21:51:14.195Z,2.72
2022-11-10T21:53:41.931Z,2.47
2022-11-10T21:56:10.561Z,2.58
2022-11-10T21:58:37.387Z,2.85
2022-11-10T22:01:11.195Z,2.80
2022-11-10T22:03:38.373Z,2.55
2022-11-10T22:06:13.635Z,3.17
2022-11-10T22:08:41.810Z,2.65
2022-11-10T22:11:35.326Z,3.15
2022-11-10T22:14:21.127Z,2.83
2022-11-10T22:17:09.370Z,3.10
2022-11-10T22:19:37.028Z,3.03
2022-11-10T22:22:04.453Z,2.47
2022-11-10T22:24:31.574Z,3.20
2022-11-10T22:27:04.474Z,4.10
2022-11-10T22:29:33.053Z,3.38
2022-11-10T22:32:01.057Z,2.90
2022-11-10T22:34:28.075Z,2.95
2022-11-10T22:36:59.700Z,3.42
2022-11-10T22:39:46.465Z,3.85
2022-11-10T22:42:32.040Z,3.30
2022-11-10T22:44:58.701Z,3.95
2022-11-10T22:47:25.342Z,2.95
2022-11-10T22:49:51.885Z,4.32
2022-11-10T22:52:18.527Z,3.88
2022-11-10T22:54:45.058Z,4.75
2022-11-10T22:57:11.682Z,3.88
2022-11-10T22:59:38.232Z,3.53
2022-11-10T23:02:04.780Z,3.88
2022-11-10T23:04:31.272Z,3.92
2022-11-10T23:06:57.820Z,3.80
2022-11-10T23:09:24.673Z,3.50
2022-11-10T23:11:51.517Z,3.55
2022-11-10T23:14:18.085Z,3.60
2022-11-10T23:16:44.612Z,3.90
2022-11-10T23:19:12.291Z,4.10
2022-11-10T23:21:38.825Z,3.38
2022-11-10T23:24:05.769Z,3.53
2022-11-10T23:26:34.764Z,4.10
2022-11-10T23:29:01.376Z,4.05
2022-11-10T23:31:28.713Z,4.18
2022-11-10T23:33:57.670Z,3.85
2022-11-10T23:36:25.932Z,3.65
2022-11-10T23:38:52.605Z,4.00
2022-11-10T23:41:20.819Z,3.42
2022-11-10T23:43:47.586Z,3.90
2022-11-10T23:46:15.258Z,3.88
2022-11-10T23:48:42.076Z,3.88
2022-11-10T23:51:11.261Z,3.67
2022-11-10T23:53:38.341Z,4.07
2022-11-10T23:56:09.155Z,3.90
2022-11-10T23:58:36.173Z,3.42
